sensor_id;sensor_type;location;lat;lon;timestamp;noise_LAeq;noise_LA_min;noise_LA_max;noise_LA01;noise_LA95
72805;Laerm;60920;48.748;19.142;2023-03-01T00:01:29;32.64;30.95;35.33;;
72805;Laerm;60920;48.748;19.142;2023-03-01T00:03:55;32.87;31.32;35.88;;
72805;Laerm;60920;48.748;19.142;2023-03-01T00:06:21;33.14;30.90;38.43;;
72805;Laerm;60920;48.748;19.142;2023-03-01T00:08:46;32.83;31.12;36.56;;
72805;Laerm;60920;48.748;19.142;2023-03-01T00:11:13;32.65;31.16;37.24;;
72805;Laerm;60920;48.748;19.142;2023-03-01T00:13:39;32.61;30.45;35.37;;
72805;Laerm;60920;48.748;19.142;2023-03-01T00:16:05;32.64;31.25;34.18;;
72805;Laerm;60920;48.748;19.142;2023-03-01T00:18:31;33.16;31.00;40.06;;
72805;Laerm;60920;48.748;19.142;2023-03-01T00:20:57;33.00;31.12;35.42;;
72805;Laerm;60920;48.748;19.142;2023-03-01T00:23:22;33.16;31.39;38.03;;
72805;Laerm;60920;48.748;19.142;2023-03-01T00:25:48;32.87;31.29;36.22;;
72805;Laerm;60920;48.748;19.142;2023-03-01T00:28:14;32.67;31.09;34.24;;
72805;Laerm;60920;48.748;19.142;2023-03-01T00:30:39;32.79;31.31;36.97;;
72805;Laerm;60920;48.748;19.142;2023-03-01T00:33:05;32.98;31.32;37.98;;
72805;Laerm;60920;48.748;19.142;2023-03-01T00:35:31;32.69;30.98;34.32;;
72805;Laerm;60920;48.748;19.142;2023-03-01T00:37:57;32.85;31.09;36.64;;
72805;Laerm;60920;48.748;19.142;2023-03-01T00:40:26;32.87;31.23;37.58;;
72805;Laerm;60920;48.748;19.142;2023-03-01T00:42:51;32.64;31.09;34.23;;
72805;Laerm;60920;48.748;19.142;2023-03-01T00:45:17;32.67;31.33;33.98;;
72805;Laerm;60920;48.748;19.142;2023-03-01T00:47:42;32.49;31.19;34.12;;
72805;Laerm;60920;48.748;19.142;2023-03-01T00:50:08;32.69;31.31;37.63;;
72805;Laerm;60920;48.748;19.142;2023-03-01T00:52:34;32.65;31.13;38.33;;
72805;Laerm;60920;48.748;19.142;2023-03-01T00:54:59;33.28;31.10;40.43;;
72805;Laerm;60920;48.748;19.142;2023-03-01T00:57:24;32.79;30.95;36.88;;
72805;Laerm;60920;48.748;19.142;2023-03-01T00:59:50;33.42;31.18;40.74;;
72805;Laerm;60920;48.748;19.142;2023-03-01T01:02:17;33.12;31.31;38.54;;
72805;Laerm;60920;48.748;19.142;2023-03-01T01:04:43;33.05;31.00;37.41;;
72805;Laerm;60920;48.748;19.142;2023-03-01T01:07:08;33.67;31.46;41.06;;
72805;Laerm;60920;48.748;19.142;2023-03-01T01:09:33;32.80;31.25;34.59;;
72805;Laerm;60920;48.748;19.142;2023-03-01T01:11:59;32.79;30.99;36.46;;
72805;Laerm;60920;48.748;19.142;2023-03-01T01:14:24;32.69;31.20;34.10;;
72805;Laerm;60920;48.748;19.142;2023-03-01T01:16:49;33.27;31.30;40.45;;
72805;Laerm;60920;48.748;19.142;2023-03-01T01:19:15;33.50;31.45;39.28;;
72805;Laerm;60920;48.748;19.142;2023-03-01T01:21:40;33.00;31.46;35.69;;
72805;Laerm;60920;48.748;19.142;2023-03-01T01:24:08;32.94;31.39;35.17;;
72805;Laerm;60920;48.748;19.142;2023-03-01T01:26:34;33.44;31.30;40.44;;
72805;Laerm;60920;48.748;19.142;2023-03-01T01:29:00;33.04;31.33;36.47;;
72805;Laerm;60920;48.748;19.142;2023-03-01T01:31:26;33.01;31.16;36.67;;
72805;Laerm;60920;48.748;19.142;2023-03-01T01:33:52;33.03;31.38;40.84;;
72805;Laerm;60920;48.748;19.142;2023-03-01T01:36:17;32.81;31.36;35.24;;
72805;Laerm;60920;48.748;19.142;2023-03-01T01:38:43;32.94;31.35;35.42;;
72805;Laerm;60920;48.748;19.142;2023-03-01T01:41:09;32.72;31.07;34.18;;
72805;Laerm;60920;48.748;19.142;2023-03-01T01:43:47;32.97;31.22;38.10;;
72805;Laerm;60920;48.748;19.142;2023-03-01T01:48:39;32.44;30.94;35.42;;
72805;Laerm;60920;48.748;19.142;2023-03-01T01:51:07;32.43;30.97;37.35;;
72805;Laerm;60920;48.748;19.142;2023-03-01T01:53:34;32.33;30.99;33.60;;
72805;Laerm;60920;48.748;19.142;2023-03-01T01:56:01;32.96;30.93;39.12;;
72805;Laerm;60920;48.748;19.142;2023-03-01T01:58:27;32.41;30.77;34.74;;
72805;Laerm;60920;48.748;19.142;2023-03-01T02:00:53;32.32;31.04;33.69;;
72805;Laerm;60920;48.748;19.142;2023-03-01T02:03:26;32.66;30.99;36.32;;
72805;Laerm;60920;48.748;19.142;2023-03-01T02:05:59;32.95;30.91;39.71;;
72805;Laerm;60920;48.748;19.142;2023-03-01T02:08:29;33.44;30.90;39.42;;
72805;Laerm;60920;48.748;19.142;2023-03-01T02:10:56;32.67;30.63;36.58;;
72805;Laerm;60920;48.748;19.142;2023-03-01T02:13:22;32.50;30.56;36.57;;
72805;Laerm;60920;48.748;19.142;2023-03-01T02:15:48;32.18;30.65;34.70;;
72805;Laerm;60920;48.748;19.142;2023-03-01T02:18:14;32.23;30.68;38.38;;
72805;Laerm;60920;48.748;19.142;2023-03-01T02:23:11;32.16;30.60;34.98;;
72805;Laerm;60920;48.748;19.142;2023-03-01T02:25:47;31.98;30.17;33.32;;
72805;Laerm;60920;48.748;19.142;2023-03-01T02:30:43;32.94;30.99;38.55;;
72805;Laerm;60920;48.748;19.142;2023-03-01T02:33:28;32.51;30.64;37.09;;
72805;Laerm;60920;48.748;19.142;2023-03-01T02:35:58;32.42;30.69;34.89;;
72805;Laerm;60920;48.748;19.142;2023-03-01T02:38:24;32.82;30.58;39.86;;
72805;Laerm;60920;48.748;19.142;2023-03-01T02:40:49;32.36;30.68;35.31;;
72805;Laerm;60920;48.748;19.142;2023-03-01T02:43:16;32.75;30.90;39.05;;
72805;Laerm;60920;48.748;19.142;2023-03-01T02:45:49;32.69;31.07;38.43;;
72805;Laerm;60920;48.748;19.142;2023-03-01T02:48:15;32.58;30.90;36.08;;
72805;Laerm;60920;48.748;19.142;2023-03-01T02:53:35;32.61;30.73;35.26;;
72805;Laerm;60920;48.748;19.142;2023-03-01T02:55:57;32.73;30.95;36.73;;
72805;Laerm;60920;48.748;19.142;2023-03-01T02:58:22;32.48;30.83;35.16;;
72805;Laerm;60920;48.748;19.142;2023-03-01T03:00:48;33.05;31.04;37.87;;
72805;Laerm;60920;48.748;19.142;2023-03-01T03:03:14;33.43;31.15;39.96;;
72805;Laerm;60920;48.748;19.142;2023-03-01T03:05:40;32.48;30.73;34.81;;
72805;Laerm;60920;48.748;19.142;2023-03-01T03:08:05;32.73;30.85;38.38;;
72805;Laerm;60920;48.748;19.142;2023-03-01T03:10:33;32.88;30.91;38.72;;
72805;Laerm;60920;48.748;19.142;2023-03-01T03:13:01;32.71;30.41;39.09;;
72805;Laerm;60920;48.748;19.142;2023-03-01T03:15:27;32.45;31.02;34.22;;
72805;Laerm;60920;48.748;19.142;2023-03-01T03:17:53;32.96;30.90;40.42;;
72805;Laerm;60920;48.748;19.142;2023-03-01T03:20:20;33.58;31.11;44.33;;
72805;Laerm;60920;48.748;19.142;2023-03-01T03:22:47;33.16;31.03;40.00;;
72805;Laerm;60920;48.748;19.142;2023-03-01T03:25:12;33.25;31.09;41.01;;
72805;Laerm;60920;48.748;19.142;2023-03-01T03:27:38;32.83;30.97;37.23;;
72805;Laerm;60920;48.748;19.142;2023-03-01T03:30:04;33.69;31.48;38.74;;
72805;Laerm;60920;48.748;19.142;2023-03-01T03:32:34;32.96;31.21;37.43;;
72805;Laerm;60920;48.748;19.142;2023-03-01T03:35:00;33.11;31.15;37.91;;
72805;Laerm;60920;48.748;19.142;2023-03-01T03:37:25;32.93;30.91;37.46;;
72805;Laerm;60920;48.748;19.142;2023-03-01T03:40:10;32.66;31.22;36.74;;
72805;Laerm;60920;48.748;19.142;2023-03-01T03:42:40;33.39;31.18;41.51;;
72805;Laerm;60920;48.748;19.142;2023-03-01T03:45:05;33.70;31.14;41.38;;
72805;Laerm;60920;48.748;19.142;2023-03-01T03:47:31;34.19;31.10;44.04;;
72805;Laerm;60920;48.748;19.142;2023-03-01T03:49:56;34.10;30.88;42.86;;
72805;Laerm;60920;48.748;19.142;2023-03-01T03:52:22;33.68;31.46;44.76;;
72805;Laerm;60920;48.748;19.142;2023-03-01T03:54:47;33.29;31.33;39.33;;
72805;Laerm;60920;48.748;19.142;2023-03-01T03:57:12;33.27;31.02;40.36;;
72805;Laerm;60920;48.748;19.142;2023-03-01T03:59:37;32.83;30.86;35.57;;
72805;Laerm;60920;48.748;19.142;2023-03-01T04:02:03;33.29;31.16;38.53;;
72805;Laerm;60920;48.748;19.142;2023-03-01T04:04:28;33.16;31.09;36.59;;
72805;Laerm;60920;48.748;19.142;2023-03-01T04:06:53;33.23;30.94;37.19;;
72805;Laerm;60920;48.748;19.142;2023-03-01T04:09:19;33.51;31.44;37.99;;
72805;Laerm;60920;48.748;19.142;2023-03-01T04:11:44;33.00;30.82;36.65;;
72805;Laerm;60920;48.748;19.142;2023-03-01T04:14:09;32.69;30.58;34.90;;
72805;Laerm;60920;48.748;19.142;2023-03-01T04:16:35;32.80;30.77;35.21;;
72805;Laerm;60920;48.748;19.142;2023-03-01T04:19:00;33.83;31.28;39.59;;
72805;Laerm;60920;48.748;19.142;2023-03-01T04:21:25;33.73;31.07;39.32;;
72805;Laerm;60920;48.748;19.142;2023-03-01T04:23:51;34.58;31.27;38.92;;
72805;Laerm;60920;48.748;19.142;2023-03-01T04:26:18;33.77;31.60;37.20;;
72805;Laerm;60920;48.748;19.142;2023-03-01T04:28:43;33.75;31.25;37.22;;
72805;Laerm;60920;48.748;19.142;2023-03-01T04:31:14;34.16;31.41;37.75;;
72805;Laerm;60920;48.748;19.142;2023-03-01T04:33:51;34.50;31.71;38.93;;
72805;Laerm;60920;48.748;19.142;2023-03-01T04:36:18;34.21;31.74;38.91;;
72805;Laerm;60920;48.748;19.142;2023-03-01T04:38:44;34.03;31.48;36.52;;
72805;Laerm;60920;48.748;19.142;2023-03-01T04:41:14;34.46;32.03;40.23;;
72805;Laerm;60920;48.748;19.142;2023-03-01T04:43:39;35.03;32.46;43.84;;
72805;Laerm;60920;48.748;19.142;2023-03-01T04:46:09;35.36;32.59;46.60;;
72805;Laerm;60920;48.748;19.142;2023-03-01T04:48:36;35.00;32.60;39.68;;
72805;Laerm;60920;48.748;19.142;2023-03-01T04:51:02;34.81;32.30;39.65;;
72805;Laerm;60920;48.748;19.142;2023-03-01T04:53:27;35.87;33.17;41.46;;
72805;Laerm;60920;48.748;19.142;2023-03-01T04:55:56;35.13;33.10;38.61;;
72805;Laerm;60920;48.748;19.142;2023-03-01T04:58:25;34.82;32.51;40.91;;
72805;Laerm;60920;48.748;19.142;2023-03-01T05:00:51;34.97;32.71;37.79;;
72805;Laerm;60920;48.748;19.142;2023-03-01T05:03:17;35.61;33.22;38.73;;
72805;Laerm;60920;48.748;19.142;2023-03-01T05:05:43;35.74;33.03;41.59;;
72805;Laerm;60920;48.748;19.142;2023-03-01T05:08:09;35.23;32.86;39.60;;
72805;Laerm;60920;48.748;19.142;2023-03-01T05:10:42;35.11;33.32;39.35;;
72805;Laerm;60920;48.748;19.142;2023-03-01T05:13:08;35.77;33.43;40.10;;
72805;Laerm;60920;48.748;19.142;2023-03-01T05:15:33;36.00;33.59;42.31;;
72805;Laerm;60920;48.748;19.142;2023-03-01T05:17:59;35.85;34.01;38.99;;
72805;Laerm;60920;48.748;19.142;2023-03-01T05:20:28;36.77;34.08;42.04;;
72805;Laerm;60920;48.748;19.142;2023-03-01T05:22:57;36.43;34.00;42.21;;
72805;Laerm;60920;48.748;19.142;2023-03-01T05:25:30;36.28;33.79;43.78;;
72805;Laerm;60920;48.748;19.142;2023-03-01T05:28:01;36.31;34.13;43.92;;
72805;Laerm;60920;48.748;19.142;2023-03-01T05:30:30;36.30;33.57;39.87;;
72805;Laerm;60920;48.748;19.142;2023-03-01T05:32:55;35.76;33.80;42.10;;
72805;Laerm;60920;48.748;19.142;2023-03-01T05:35:21;35.97;33.43;39.49;;
72805;Laerm;60920;48.748;19.142;2023-03-01T05:37:47;36.67;33.73;42.55;;
72805;Laerm;60920;48.748;19.142;2023-03-01T05:40:17;36.28;33.39;42.45;;
72805;Laerm;60920;48.748;19.142;2023-03-01T05:42:47;36.06;33.44;43.21;;
72805;Laerm;60920;48.748;19.142;2023-03-01T05:45:13;36.22;33.66;42.23;;
72805;Laerm;60920;48.748;19.142;2023-03-01T05:47:39;36.61;33.20;41.13;;
72805;Laerm;60920;48.748;19.142;2023-03-01T05:50:09;36.42;33.64;40.66;;
72805;Laerm;60920;48.748;19.142;2023-03-01T05:52:35;36.00;33.79;39.00;;
72805;Laerm;60920;48.748;19.142;2023-03-01T05:55:00;36.90;34.12;46.43;;
72805;Laerm;60920;48.748;19.142;2023-03-01T05:57:27;36.63;33.52;51.24;;
72805;Laerm;60920;48.748;19.142;2023-03-01T05:59:53;36.08;33.93;40.34;;
72805;Laerm;60920;48.748;19.142;2023-03-01T06:02:18;35.59;33.30;41.46;;
72805;Laerm;60920;48.748;19.142;2023-03-01T06:04:43;36.47;34.07;42.06;;
72805;Laerm;60920;48.748;19.142;2023-03-01T06:07:08;35.93;32.84;40.43;;
72805;Laerm;60920;48.748;19.142;2023-03-01T06:09:34;35.91;33.69;39.72;;
72805;Laerm;60920;48.748;19.142;2023-03-01T06:11:59;36.18;32.93;40.38;;
72805;Laerm;60920;48.748;19.142;2023-03-01T06:14:25;36.19;32.93;39.42;;
72805;Laerm;60920;48.748;19.142;2023-03-01T06:16:50;36.16;33.37;44.88;;
72805;Laerm;60920;48.748;19.142;2023-03-01T06:19:15;36.01;32.78;45.58;;
72805;Laerm;60920;48.748;19.142;2023-03-01T06:21:41;36.33;33.63;40.12;;
72805;Laerm;60920;48.748;19.142;2023-03-01T06:24:06;36.33;33.41;41.71;;
72805;Laerm;60920;48.748;19.142;2023-03-01T06:26:32;37.00;33.67;43.52;;
72805;Laerm;60920;48.748;19.142;2023-03-01T06:28:57;36.43;32.72;45.18;;
72805;Laerm;60920;48.748;19.142;2023-03-01T06:31:22;36.38;33.52;44.56;;
72805;Laerm;60920;48.748;19.142;2023-03-01T06:33:48;36.05;33.22;42.31;;
72805;Laerm;60920;48.748;19.142;2023-03-01T06:36:13;36.00;32.83;39.55;;
72805;Laerm;60920;48.748;19.142;2023-03-01T06:38:38;36.17;33.85;39.73;;
72805;Laerm;60920;48.748;19.142;2023-03-01T06:41:05;36.15;33.05;42.53;;
72805;Laerm;60920;48.748;19.142;2023-03-01T06:43:31;36.20;33.09;44.98;;
72805;Laerm;60920;48.748;19.142;2023-03-01T06:45:57;36.52;32.89;39.84;;
72805;Laerm;60920;48.748;19.142;2023-03-01T06:48:22;36.55;33.27;42.30;;
72805;Laerm;60920;48.748;19.142;2023-03-01T06:50:48;36.51;33.65;41.98;;
72805;Laerm;60920;48.748;19.142;2023-03-01T06:53:13;36.04;33.54;40.56;;
72805;Laerm;60920;48.748;19.142;2023-03-01T06:55:38;36.24;33.29;41.18;;
72805;Laerm;60920;48.748;19.142;2023-03-01T06:58:04;36.46;33.60;44.41;;
72805;Laerm;60920;48.748;19.142;2023-03-01T07:00:30;36.18;33.37;40.56;;
72805;Laerm;60920;48.748;19.142;2023-03-01T07:02:58;35.86;33.18;40.10;;
72805;Laerm;60920;48.748;19.142;2023-03-01T07:05:23;36.09;33.17;41.15;;
72805;Laerm;60920;48.748;19.142;2023-03-01T07:07:48;36.09;32.30;40.71;;
72805;Laerm;60920;48.748;19.142;2023-03-01T07:10:14;36.38;33.73;41.79;;
72805;Laerm;60920;48.748;19.142;2023-03-01T07:12:39;36.47;33.57;45.03;;
72805;Laerm;60920;48.748;19.142;2023-03-01T07:15:06;36.23;32.97;44.50;;
72805;Laerm;60920;48.748;19.142;2023-03-01T07:17:34;35.98;32.30;49.07;;
72805;Laerm;60920;48.748;19.142;2023-03-01T07:19:59;36.39;32.68;43.36;;
72805;Laerm;60920;48.748;19.142;2023-03-01T07:22:25;36.02;32.06;42.63;;
72805;Laerm;60920;48.748;19.142;2023-03-01T07:24:50;35.92;32.29;41.10;;
72805;Laerm;60920;48.748;19.142;2023-03-01T07:27:15;35.33;31.81;41.58;;
72805;Laerm;60920;48.748;19.142;2023-03-01T07:29:41;36.01;31.89;41.89;;
72805;Laerm;60920;48.748;19.142;2023-03-01T07:32:06;35.95;32.14;45.95;;
72805;Laerm;60920;48.748;19.142;2023-03-01T07:34:32;35.11;31.56;41.06;;
72805;Laerm;60920;48.748;19.142;2023-03-01T07:36:57;35.02;31.52;39.40;;
72805;Laerm;60920;48.748;19.142;2023-03-01T07:39:22;36.45;32.20;43.81;;
72805;Laerm;60920;48.748;19.142;2023-03-01T07:41:48;35.45;32.29;41.42;;
72805;Laerm;60920;48.748;19.142;2023-03-01T07:44:13;36.15;31.75;41.10;;
72805;Laerm;60920;48.748;19.142;2023-03-01T07:46:40;35.81;31.57;46.26;;
72805;Laerm;60920;48.748;19.142;2023-03-01T07:49:05;35.31;32.03;39.15;;
72805;Laerm;60920;48.748;19.142;2023-03-01T07:51:30;35.90;30.89;40.26;;
72805;Laerm;60920;48.748;19.142;2023-03-01T07:53:55;35.20;32.04;39.39;;
72805;Laerm;60920;48.748;19.142;2023-03-01T07:56:21;35.40;32.12;39.45;;
72805;Laerm;60920;48.748;19.142;2023-03-01T07:58:47;34.69;31.32;38.83;;
72805;Laerm;60920;48.748;19.142;2023-03-01T08:01:17;35.03;32.11;39.49;;
72805;Laerm;60920;48.748;19.142;2023-03-01T08:03:42;34.98;30.93;41.52;;
72805;Laerm;60920;48.748;19.142;2023-03-01T08:06:09;35.61;31.38;47.10;;
72805;Laerm;60920;48.748;19.142;2023-03-01T08:08:35;35.17;31.58;44.76;;
72805;Laerm;60920;48.748;19.142;2023-03-01T08:11:01;35.14;30.59;41.47;;
72805;Laerm;60920;48.748;19.142;2023-03-01T08:13:27;34.70;30.67;40.28;;
72805;Laerm;60920;48.748;19.142;2023-03-01T08:15:52;35.31;31.37;42.22;;
72805;Laerm;60920;48.748;19.142;2023-03-01T08:18:18;35.85;30.30;41.86;;
72805;Laerm;60920;48.748;19.142;2023-03-01T08:20:44;34.84;30.66;38.84;;
72805;Laerm;60920;48.748;19.142;2023-03-01T08:23:09;34.38;30.54;40.44;;
72805;Laerm;60920;48.748;19.142;2023-03-01T08:25:35;35.24;31.62;39.87;;
72805;Laerm;60920;48.748;19.142;2023-03-01T08:28:01;35.35;31.35;42.83;;
72805;Laerm;60920;48.748;19.142;2023-03-01T08:30:26;35.25;30.70;42.00;;
72805;Laerm;60920;48.748;19.142;2023-03-01T08:32:52;34.89;30.49;41.12;;
72805;Laerm;60920;48.748;19.142;2023-03-01T08:35:18;36.06;31.63;43.35;;
72805;Laerm;60920;48.748;19.142;2023-03-01T08:37:44;36.18;31.29;43.99;;
72805;Laerm;60920;48.748;19.142;2023-03-01T08:40:09;36.27;30.71;44.92;;
72805;Laerm;60920;48.748;19.142;2023-03-01T08:42:35;35.04;29.59;43.88;;
72805;Laerm;60920;48.748;19.142;2023-03-01T08:45:00;35.83;31.65;43.28;;
72805;Laerm;60920;48.748;19.142;2023-03-01T08:47:26;35.91;31.38;46.08;;
72805;Laerm;60920;48.748;19.142;2023-03-01T08:49:51;35.96;32.47;41.03;;
72805;Laerm;60920;48.748;19.142;2023-03-01T08:52:16;35.89;32.38;42.44;;
72805;Laerm;60920;48.748;19.142;2023-03-01T08:54:42;45.02;31.77;62.60;;
72805;Laerm;60920;48.748;19.142;2023-03-01T08:57:07;42.87;32.84;62.62;;
72805;Laerm;60920;48.748;19.142;2023-03-01T08:59:34;36.03;32.26;48.03;;
72805;Laerm;60920;48.748;19.142;2023-03-01T09:02:02;35.69;32.33;41.67;;
72805;Laerm;60920;48.748;19.142;2023-03-01T09:04:28;35.33;30.72;41.79;;
72805;Laerm;60920;48.748;19.142;2023-03-01T09:06:53;36.00;31.15;44.63;;
72805;Laerm;60920;48.748;19.142;2023-03-01T09:09:18;35.86;30.87;41.72;;
72805;Laerm;60920;48.748;19.142;2023-03-01T09:11:44;35.49;29.87;42.55;;
72805;Laerm;60920;48.748;19.142;2023-03-01T09:14:11;35.66;30.38;41.65;;
72805;Laerm;60920;48.748;19.142;2023-03-01T09:16:37;35.76;31.30;45.10;;
72805;Laerm;60920;48.748;19.142;2023-03-01T09:19:02;35.15;30.59;39.75;;
72805;Laerm;60920;48.748;19.142;2023-03-01T09:21:28;35.35;31.08;51.17;;
72805;Laerm;60920;48.748;19.142;2023-03-01T09:23:55;35.55;31.56;45.60;;
72805;Laerm;60920;48.748;19.142;2023-03-01T09:26:21;35.43;31.35;41.25;;
72805;Laerm;60920;48.748;19.142;2023-03-01T09:28:48;34.52;30.70;40.97;;
72805;Laerm;60920;48.748;19.142;2023-03-01T09:31:14;37.25;31.18;48.09;;
72805;Laerm;60920;48.748;19.142;2023-03-01T09:33:40;36.17;30.53;45.88;;
72805;Laerm;60920;48.748;19.142;2023-03-01T09:36:07;35.80;30.64;48.51;;
72805;Laerm;60920;48.748;19.142;2023-03-01T09:38:33;34.37;30.89;45.62;;
72805;Laerm;60920;48.748;19.142;2023-03-01T09:40:59;35.93;31.52;43.56;;
72805;Laerm;60920;48.748;19.142;2023-03-01T09:43:30;36.80;31.28;45.05;;
72805;Laerm;60920;48.748;19.142;2023-03-01T09:45:59;35.76;30.20;43.87;;
72805;Laerm;60920;48.748;19.142;2023-03-01T09:48:27;35.97;30.63;45.88;;
72805;Laerm;60920;48.748;19.142;2023-03-01T09:50:54;35.76;31.27;41.61;;
72805;Laerm;60920;48.748;19.142;2023-03-01T09:53:23;35.60;30.44;56.71;;
72805;Laerm;60920;48.748;19.142;2023-03-01T09:55:59;36.46;31.32;49.27;;
72805;Laerm;60920;48.748;19.142;2023-03-01T10:00:57;34.56;29.66;42.55;;
72805;Laerm;60920;48.748;19.142;2023-03-01T10:03:28;36.14;30.84;43.10;;
72805;Laerm;60920;48.748;19.142;2023-03-01T10:11:21;36.01;31.75;46.98;;
72805;Laerm;60920;48.748;19.142;2023-03-01T10:13:50;35.03;29.59;41.44;;
72805;Laerm;60920;48.748;19.142;2023-03-01T10:16:38;36.26;32.57;52.62;;
72805;Laerm;60920;48.748;19.142;2023-03-01T10:19:05;36.64;31.84;48.04;;
72805;Laerm;60920;48.748;19.142;2023-03-01T10:21:36;35.44;31.43;43.04;;
72805;Laerm;60920;48.748;19.142;2023-03-01T10:24:13;36.75;31.91;42.91;;
72805;Laerm;60920;48.748;19.142;2023-03-01T10:26:58;35.98;31.56;45.11;;
72805;Laerm;60920;48.748;19.142;2023-03-01T10:29:31;34.94;29.38;41.48;;
72805;Laerm;60920;48.748;19.142;2023-03-01T10:31:59;36.05;31.15;42.21;;
72805;Laerm;60920;48.748;19.142;2023-03-01T10:34:29;35.25;30.12;46.89;;
72805;Laerm;60920;48.748;19.142;2023-03-01T10:37:14;36.17;31.84;44.56;;
72805;Laerm;60920;48.748;19.142;2023-03-01T10:39:54;35.94;31.03;40.88;;
72805;Laerm;60920;48.748;19.142;2023-03-01T10:42:22;35.93;30.12;47.74;;
72805;Laerm;60920;48.748;19.142;2023-03-01T10:44:50;35.76;30.88;44.66;;
72805;Laerm;60920;48.748;19.142;2023-03-01T10:47:17;37.31;32.38;45.08;;
72805;Laerm;60920;48.748;19.142;2023-03-01T10:49:52;36.87;32.23;43.64;;
72805;Laerm;60920;48.748;19.142;2023-03-01T10:52:18;36.40;30.85;46.22;;
72805;Laerm;60920;48.748;19.142;2023-03-01T10:54:50;36.51;31.43;41.27;;
72805;Laerm;60920;48.748;19.142;2023-03-01T10:57:30;35.85;31.25;44.61;;
72805;Laerm;60920;48.748;19.142;2023-03-01T11:00:29;36.22;30.77;47.60;;
72805;Laerm;60920;48.748;19.142;2023-03-01T11:02:48;35.18;30.83;42.82;;
72805;Laerm;60920;48.748;19.142;2023-03-01T11:07:48;35.65;30.60;46.17;;
72805;Laerm;60920;48.748;19.142;2023-03-01T11:10:17;38.76;31.47;50.12;;
72805;Laerm;60920;48.748;19.142;2023-03-01T11:12:43;35.99;31.05;48.98;;
72805;Laerm;60920;48.748;19.142;2023-03-01T11:15:15;36.78;31.46;44.45;;
72805;Laerm;60920;48.748;19.142;2023-03-01T11:17:44;37.26;30.96;47.38;;
72805;Laerm;60920;48.748;19.142;2023-03-01T11:22:35;36.58;32.62;46.28;;
72805;Laerm;60920;48.748;19.142;2023-03-01T11:25:00;36.83;30.49;45.90;;
72805;Laerm;60920;48.748;19.142;2023-03-01T11:27:34;36.46;30.73;44.67;;
72805;Laerm;60920;48.748;19.142;2023-03-01T11:32:28;37.36;32.40;42.67;;
72805;Laerm;60920;48.748;19.142;2023-03-01T11:34:57;37.25;31.42;52.57;;
72805;Laerm;60920;48.748;19.142;2023-03-01T11:37:33;37.51;32.25;48.49;;
72805;Laerm;60920;48.748;19.142;2023-03-01T11:40:15;36.60;32.43;42.98;;
72805;Laerm;60920;48.748;19.142;2023-03-01T11:45:12;36.40;31.27;43.99;;
72805;Laerm;60920;48.748;19.142;2023-03-01T11:47:49;36.55;30.16;42.33;;
72805;Laerm;60920;48.748;19.142;2023-03-01T11:52:56;35.04;30.95;44.93;;
72805;Laerm;60920;48.748;19.142;2023-03-01T12:00:30;38.55;32.89;51.53;;
72805;Laerm;60920;48.748;19.142;2023-03-01T12:03:08;38.47;33.08;51.85;;
72805;Laerm;60920;48.748;19.142;2023-03-01T12:05:54;37.43;32.60;51.53;;
72805;Laerm;60920;48.748;19.142;2023-03-01T12:08:33;37.77;32.84;50.36;;
72805;Laerm;60920;48.748;19.142;2023-03-01T12:18:53;38.83;32.25;53.87;;
72805;Laerm;60920;48.748;19.142;2023-03-01T12:21:38;37.20;33.02;49.00;;
72805;Laerm;60920;48.748;19.142;2023-03-01T12:29:31;37.23;31.86;44.36;;
72805;Laerm;60920;48.748;19.142;2023-03-01T12:42:19;37.88;34.17;50.25;;
72805;Laerm;60920;48.748;19.142;2023-03-01T12:47:53;37.51;32.51;45.10;;
72805;Laerm;60920;48.748;19.142;2023-03-01T12:50:31;36.52;31.38;45.86;;
72805;Laerm;60920;48.748;19.142;2023-03-01T12:53:02;36.63;32.73;46.86;;
72805;Laerm;60920;48.748;19.142;2023-03-01T12:55:34;37.26;31.73;44.37;;
72805;Laerm;60920;48.748;19.142;2023-03-01T13:00:35;37.15;32.10;43.70;;
72805;Laerm;60920;48.748;19.142;2023-03-01T13:05:56;36.79;30.03;44.34;;
72805;Laerm;60920;48.748;19.142;2023-03-01T13:08:27;34.98;31.08;43.18;;
72805;Laerm;60920;48.748;19.142;2023-03-01T13:10:58;39.37;32.12;45.29;;
72805;Laerm;60920;48.748;19.142;2023-03-01T13:13:26;36.44;31.98;45.71;;
72805;Laerm;60920;48.748;19.142;2023-03-01T13:15:52;36.10;31.02;43.76;;
72805;Laerm;60920;48.748;19.142;2023-03-01T13:20:51;36.82;33.10;47.71;;
72805;Laerm;60920;48.748;19.142;2023-03-01T13:31:56;38.89;34.29;48.50;;
72805;Laerm;60920;48.748;19.142;2023-03-01T13:33:56;37.02;32.10;47.70;;
72805;Laerm;60920;48.748;19.142;2023-03-01T13:39:00;38.35;33.52;50.66;;
72805;Laerm;60920;48.748;19.142;2023-03-01T13:44:48;37.91;33.14;45.05;;
72805;Laerm;60920;48.748;19.142;2023-03-01T13:46:49;40.80;33.59;58.22;;
72805;Laerm;60920;48.748;19.142;2023-03-01T13:49:19;35.70;32.00;42.02;;
72805;Laerm;60920;48.748;19.142;2023-03-01T13:51:46;35.77;32.41;44.92;;
72805;Laerm;60920;48.748;19.142;2023-03-01T13:54:12;35.76;32.62;46.46;;
72805;Laerm;60920;48.748;19.142;2023-03-01T13:56:39;35.86;31.29;45.84;;
72805;Laerm;60920;48.748;19.142;2023-03-01T13:59:05;36.45;30.52;59.35;;
72805;Laerm;60920;48.748;19.142;2023-03-01T14:01:37;34.95;29.81;46.86;;
72805;Laerm;60920;48.748;19.142;2023-03-01T14:04:03;35.45;31.68;42.81;;
72805;Laerm;60920;48.748;19.142;2023-03-01T14:06:39;35.39;31.40;48.07;;
72805;Laerm;60920;48.748;19.142;2023-03-01T14:09:21;35.78;32.30;50.20;;
72805;Laerm;60920;48.748;19.142;2023-03-01T14:14:40;36.80;32.28;51.08;;
72805;Laerm;60920;48.748;19.142;2023-03-01T14:19:45;36.92;33.20;44.48;;
72805;Laerm;60920;48.748;19.142;2023-03-01T14:22:18;36.61;32.67;47.65;;
72805;Laerm;60920;48.748;19.142;2023-03-01T14:24:49;36.06;31.57;44.12;;
72805;Laerm;60920;48.748;19.142;2023-03-01T14:27:15;35.52;31.96;39.43;;
72805;Laerm;60920;48.748;19.142;2023-03-01T14:29:42;35.56;31.97;44.06;;
72805;Laerm;60920;48.748;19.142;2023-03-01T14:32:18;36.06;31.76;45.28;;
72805;Laerm;60920;48.748;19.142;2023-03-01T14:34:45;36.34;31.94;45.68;;
72805;Laerm;60920;48.748;19.142;2023-03-01T14:40:56;36.63;32.76;44.66;;
72805;Laerm;60920;48.748;19.142;2023-03-01T14:43:03;36.74;31.79;46.01;;
72805;Laerm;60920;48.748;19.142;2023-03-01T14:45:33;35.65;32.45;39.80;;
72805;Laerm;60920;48.748;19.142;2023-03-01T14:47:59;36.57;33.05;42.83;;
72805;Laerm;60920;48.748;19.142;2023-03-01T14:50:29;36.51;32.88;41.87;;
72805;Laerm;60920;48.748;19.142;2023-03-01T14:52:56;35.72;31.87;41.37;;
72805;Laerm;60920;48.748;19.142;2023-03-01T14:55:26;36.37;32.36;45.67;;
72805;Laerm;60920;48.748;19.142;2023-03-01T14:57:53;36.43;32.98;43.10;;
72805;Laerm;60920;48.748;19.142;2023-03-01T15:00:23;36.79;33.13;42.60;;
72805;Laerm;60920;48.748;19.142;2023-03-01T15:02:50;35.96;32.39;54.12;;
72805;Laerm;60920;48.748;19.142;2023-03-01T15:05:15;35.82;31.96;40.43;;
72805;Laerm;60920;48.748;19.142;2023-03-01T15:07:43;35.78;32.46;46.57;;